sensor_id;sensor_type;location;lat;lon;timestamp;P1;durP1;ratioP1;P2;durP2;ratioP2
17193;SDS011;8713;48.388;10.928;2022-08-20T03:29:16;10.60;;;6.75;;
17193;SDS011;8713;48.388;10.928;2022-08-20T03:30:26;10.55;;;7.00;;
17193;SDS011;8713;48.388;10.928;2022-08-20T03:31:36;10.88;;;7.13;;
17193;SDS011;8713;48.388;10.928;2022-08-20T03:32:46;12.60;;;7.63;;
17193;SDS011;8713;48.388;10.928;2022-08-20T03:33:55;10.07;;;6.65;;
17193;SDS011;8713;48.388;10.928;2022-08-20T03:35:06;10.93;;;7.18;;
17193;SDS011;8713;48.388;10.928;2022-08-20T03:36:22;10.10;;;7.15;;
17193;SDS011;8713;48.388;10.928;2022-08-20T03:37:33;9.68;;;7.00;;
17193;SDS011;8713;48.388;10.928;2022-08-20T03:38:44;10.25;;;7.03;;
17193;SDS011;8713;48.388;10.928;2022-08-20T03:39:54;8.85;;;6.18;;
17193;SDS011;8713;48.388;10.928;2022-08-20T03:41:03;9.65;;;6.57;;
17193;SDS011;8713;48.388;10.928;2022-08-20T03:42:12;9.77;;;6.95;;
17193;SDS011;8713;48.388;10.928;2022-08-20T03:43:22;12.00;;;7.32;;
17193;SDS011;8713;48.388;10.928;2022-08-20T03:44:32;9.70;;;6.85;;
17193;SDS011;8713;48.388;10.928;2022-08-20T03:45:44;11.35;;;6.65;;
17193;SDS011;8713;48.388;10.928;2022-08-20T03:46:54;11.05;;;7.03;;
17193;SDS011;8713;48.388;10.928;2022-08-20T03:48:04;9.52;;;6.70;;
17193;SDS011;8713;48.388;10.928;2022-08-20T03:49:17;8.68;;;6.57;;
17193;SDS011;8713;48.388;10.928;2022-08-20T03:50:27;8.60;;;6.25;;
17193;SDS011;8713;48.388;10.928;2022-08-20T03:51:39;12.05;;;7.10;;
17193;SDS011;8713;48.388;10.928;2022-08-20T03:52:50;12.52;;;7.03;;
17193;SDS011;8713;48.388;10.928;2022-08-20T03:54:00;11.40;;;6.90;;
17193;SDS011;8713;48.388;10.928;2022-08-20T03:55:10;9.43;;;7.00;;
17193;SDS011;8713;48.388;10.928;2022-08-20T03:56:20;9.82;;;7.55;;
17193;SDS011;8713;48.388;10.928;2022-08-20T03:57:29;10.48;;;7.18;;
17193;SDS011;8713;48.388;10.928;2022-08-20T03:58:39;11.93;;;7.25;;
17193;SDS011;8713;48.388;10.928;2022-08-20T03:59:49;13.00;;;7.88;;
17193;SDS011;8713;48.388;10.928;2022-08-20T04:00:59;11.60;;;7.03;;
17193;SDS011;8713;48.388;10.928;2022-08-20T04:02:09;10.07;;;6.93;;
17193;SDS011;8713;48.388;10.928;2022-08-20T04:03:19;10.10;;;6.90;;
17193;SDS011;8713;48.388;10.928;2022-08-20T04:04:29;9.25;;;6.75;;
17193;SDS011;8713;48.388;10.928;2022-08-20T04:05:39;9.90;;;6.30;;
17193;SDS011;8713;48.388;10.928;2022-08-20T04:06:49;9.73;;;6.65;;
17193;SDS011;8713;48.388;10.928;2022-08-20T04:07:59;9.65;;;6.63;;
17193;SDS011;8713;48.388;10.928;2022-08-20T04:09:09;9.32;;;6.68;;
17193;SDS011;8713;48.388;10.928;2022-08-20T04:10:19;9.85;;;6.57;;
17193;SDS011;8713;48.388;10.928;2022-08-20T04:11:29;9.75;;;6.35;;
17193;SDS011;8713;48.388;10.928;2022-08-20T04:12:41;9.10;;;6.53;;
17193;SDS011;8713;48.388;10.928;2022-08-20T04:13:51;9.82;;;6.68;;
17193;SDS011;8713;48.388;10.928;2022-08-20T04:15:00;9.07;;;6.47;;
17193;SDS011;8713;48.388;10.928;2022-08-20T04:16:09;10.45;;;6.97;;
17193;SDS011;8713;48.388;10.928;2022-08-20T04:17:19;12.38;;;6.78;;
17193;SDS011;8713;48.388;10.928;2022-08-20T04:18:28;11.70;;;7.38;;
17193;SDS011;8713;48.388;10.928;2022-08-20T04:19:38;9.85;;;7.00;;
17193;SDS011;8713;48.388;10.928;2022-08-20T04:20:48;10.07;;;7.13;;
17193;SDS011;8713;48.388;10.928;2022-08-20T04:21:59;8.90;;;6.38;;
17193;SDS011;8713;48.388;10.928;2022-08-20T04:23:08;10.57;;;7.05;;
17193;SDS011;8713;48.388;10.928;2022-08-20T04:24:18;10.82;;;6.70;;
17193;SDS011;8713;48.388;10.928;2022-08-20T04:25:28;12.73;;;6.65;;
17193;SDS011;8713;48.388;10.928;2022-08-20T04:26:40;9.45;;;6.32;;
17193;SDS011;8713;48.388;10.928;2022-08-20T04:27:50;9.95;;;6.97;;
17193;SDS011;8713;48.388;10.928;2022-08-20T04:28:59;9.88;;;6.72;;
17193;SDS011;8713;48.388;10.928;2022-08-20T04:30:09;9.77;;;7.00;;
17193;SDS011;8713;48.388;10.928;2022-08-20T04:31:21;10.00;;;6.45;;
17193;SDS011;8713;48.388;10.928;2022-08-20T04:32:32;12.85;;;6.88;;
17193;SDS011;8713;48.388;10.928;2022-08-20T04:33:44;9.45;;;6.50;;
17193;SDS011;8713;48.388;10.928;2022-08-20T04:34:54;10.73;;;6.60;;
17193;SDS011;8713;48.388;10.928;2022-08-20T04:36:03;9.05;;;6.40;;
17193;SDS011;8713;48.388;10.928;2022-08-20T04:37:13;8.00;;;5.75;;
17193;SDS011;8713;48.388;10.928;2022-08-20T04:38:25;9.63;;;6.35;;
17193;SDS011;8713;48.388;10.928;2022-08-20T04:39:35;9.75;;;6.72;;
17193;SDS011;8713;48.388;10.928;2022-08-20T04:40:44;9.00;;;6.35;;
17193;SDS011;8713;48.388;10.928;2022-08-20T04:42:05;8.68;;;6.38;;
17193;SDS011;8713;48.388;10.928;2022-08-20T04:43:15;9.32;;;6.60;;
17193;SDS011;8713;48.388;10.928;2022-08-20T04:44:24;9.20;;;6.13;;
17193;SDS011;8713;48.388;10.928;2022-08-20T04:45:34;9.88;;;6.68;;
17193;SDS011;8713;48.388;10.928;2022-08-20T04:46:43;10.35;;;6.53;;
17193;SDS011;8713;48.388;10.928;2022-08-20T04:47:53;10.10;;;6.25;;
17193;SDS011;8713;48.388;10.928;2022-08-20T04:49:03;10.75;;;6.63;;
17193;SDS011;8713;48.388;10.928;2022-08-20T04:50:14;9.68;;;6.32;;
17193;SDS011;8713;48.388;10.928;2022-08-20T04:51:24;8.95;;;6.22;;
17193;SDS011;8713;48.388;10.928;2022-08-20T04:52:34;8.40;;;5.80;;
17193;SDS011;8713;48.388;10.928;2022-08-20T04:53:43;8.75;;;6.18;;
17193;SDS011;8713;48.388;10.928;2022-08-20T04:54:53;9.60;;;6.38;;
17193;SDS011;8713;48.388;10.928;2022-08-20T04:56:05;10.18;;;5.80;;
17193;SDS011;8713;48.388;10.928;2022-08-20T04:57:15;7.45;;;5.13;;
17193;SDS011;8713;48.388;10.928;2022-08-20T04:58:29;9.38;;;6.18;;
17193;SDS011;8713;48.388;10.928;2022-08-20T04:59:41;8.80;;;5.72;;
17193;SDS011;8713;48.388;10.928;2022-08-20T05:00:53;8.18;;;5.53;;
17193;SDS011;8713;48.388;10.928;2022-08-20T05:02:08;8.40;;;6.00;;
17193;SDS011;8713;48.388;10.928;2022-08-20T05:03:17;8.75;;;6.05;;
17193;SDS011;8713;48.388;10.928;2022-08-20T05:04:26;11.70;;;5.93;;
17193;SDS011;8713;48.388;10.928;2022-08-20T05:05:36;8.88;;;6.30;;
17193;SDS011;8713;48.388;10.928;2022-08-20T05:06:45;8.90;;;6.07;;
17193;SDS011;8713;48.388;10.928;2022-08-20T05:07:57;9.95;;;6.80;;
17193;SDS011;8713;48.388;10.928;2022-08-20T05:09:06;8.48;;;5.88;;
17193;SDS011;8713;48.388;10.928;2022-08-20T05:10:16;8.57;;;5.80;;
17193;SDS011;8713;48.388;10.928;2022-08-20T05:11:26;8.43;;;5.63;;
17193;SDS011;8713;48.388;10.928;2022-08-20T05:12:36;8.30;;;5.43;;
17193;SDS011;8713;48.388;10.928;2022-08-20T05:13:46;8.63;;;5.82;;
17193;SDS011;8713;48.388;10.928;2022-08-20T05:14:56;7.45;;;5.22;;
17193;SDS011;8713;48.388;10.928;2022-08-20T05:16:06;8.73;;;5.85;;
17193;SDS011;8713;48.388;10.928;2022-08-20T05:17:16;7.10;;;5.25;;
17193;SDS011;8713;48.388;10.928;2022-08-20T05:18:26;7.97;;;5.68;;
17193;SDS011;8713;48.388;10.928;2022-08-20T05:19:35;8.60;;;5.97;;
17193;SDS011;8713;48.388;10.928;2022-08-20T05:20:46;10.15;;;5.57;;
17193;SDS011;8713;48.388;10.928;2022-08-20T05:21:57;8.18;;;5.53;;
17193;SDS011;8713;48.388;10.928;2022-08-20T05:23:07;8.98;;;5.50;;
17193;SDS011;8713;48.388;10.928;2022-08-20T05:24:18;7.88;;;5.57;;
17193;SDS011;8713;48.388;10.928;2022-08-20T05:25:29;7.78;;;4.85;;
17193;SDS011;8713;48.388;10.928;2022-08-20T05:26:38;8.50;;;5.80;;
17193;SDS011;8713;48.388;10.928;2022-08-20T05:27:48;7.60;;;5.55;;
17193;SDS011;8713;48.388;10.928;2022-08-20T05:28:57;7.38;;;5.28;;
17193;SDS011;8713;48.388;10.928;2022-08-20T05:30:09;11.82;;;5.80;;
17193;SDS011;8713;48.388;10.928;2022-08-20T05:31:20;8.02;;;5.63;;
17193;SDS011;8713;48.388;10.928;2022-08-20T05:32:29;8.35;;;5.50;;
17193;SDS011;8713;48.388;10.928;2022-08-20T05:33:38;7.90;;;5.30;;
17193;SDS011;8713;48.388;10.928;2022-08-20T05:34:48;7.03;;;5.03;;
17193;SDS011;8713;48.388;10.928;2022-08-20T05:35:57;8.48;;;5.65;;
17193;SDS011;8713;48.388;10.928;2022-08-20T05:37:07;8.10;;;4.90;;
17193;SDS011;8713;48.388;10.928;2022-08-20T05:38:19;6.97;;;5.10;;
17193;SDS011;8713;48.388;10.928;2022-08-20T05:39:34;7.38;;;4.80;;
17193;SDS011;8713;48.388;10.928;2022-08-20T05:40:44;9.45;;;5.50;;
17193;SDS011;8713;48.388;10.928;2022-08-20T05:41:53;7.50;;;5.50;;
17193;SDS011;8713;48.388;10.928;2022-08-20T05:43:03;7.93;;;5.13;;
17193;SDS011;8713;48.388;10.928;2022-08-20T05:44:12;8.15;;;5.57;;
17193;SDS011;8713;48.388;10.928;2022-08-20T05:45:22;7.80;;;5.50;;
17193;SDS011;8713;48.388;10.928;2022-08-20T05:46:31;8.57;;;5.53;;
17193;SDS011;8713;48.388;10.928;2022-08-20T05:47:41;7.85;;;4.75;;
17193;SDS011;8713;48.388;10.928;2022-08-20T05:48:51;8.23;;;5.35;;
17193;SDS011;8713;48.388;10.928;2022-08-20T05:50:02;6.65;;;5.03;;
17193;SDS011;8713;48.388;10.928;2022-08-20T05:51:13;7.55;;;5.32;;
17193;SDS011;8713;48.388;10.928;2022-08-20T05:52:23;7.15;;;4.97;;
17193;SDS011;8713;48.388;10.928;2022-08-20T05:53:33;7.80;;;5.25;;
17193;SDS011;8713;48.388;10.928;2022-08-20T05:54:42;6.30;;;4.55;;
17193;SDS011;8713;48.388;10.928;2022-08-20T05:55:52;6.53;;;4.95;;
17193;SDS011;8713;48.388;10.928;2022-08-20T05:57:01;8.25;;;4.65;;
17193;SDS011;8713;48.388;10.928;2022-08-20T05:58:17;7.40;;;4.65;;
17193;SDS011;8713;48.388;10.928;2022-08-20T05:59:32;7.03;;;4.57;;
17193;SDS011;8713;48.388;10.928;2022-08-20T06:00:44;6.30;;;4.63;;
17193;SDS011;8713;48.388;10.928;2022-08-20T06:01:53;7.88;;;5.05;;
17193;SDS011;8713;48.388;10.928;2022-08-20T06:03:03;5.43;;;4.10;;
17193;SDS011;8713;48.388;10.928;2022-08-20T06:04:31;6.40;;;4.10;;
17193;SDS011;8713;48.388;10.928;2022-08-20T06:05:41;7.53;;;4.38;;
17193;SDS011;8713;48.388;10.928;2022-08-20T06:06:51;7.90;;;4.97;;
17193;SDS011;8713;48.388;10.928;2022-08-20T06:08:12;6.72;;;4.22;;
17193;SDS011;8713;48.388;10.928;2022-08-20T06:09:22;8.63;;;4.35;;
17193;SDS011;8713;48.388;10.928;2022-08-20T06:10:33;11.75;;;4.55;;
17193;SDS011;8713;48.388;10.928;2022-08-20T06:11:43;7.70;;;4.63;;
17193;SDS011;8713;48.388;10.928;2022-08-20T06:12:52;6.35;;;4.72;;
17193;SDS011;8713;48.388;10.928;2022-08-20T06:14:02;7.50;;;4.90;;
17193;SDS011;8713;48.388;10.928;2022-08-20T06:15:11;7.60;;;4.43;;
17193;SDS011;8713;48.388;10.928;2022-08-20T06:16:21;5.80;;;4.18;;
17193;SDS011;8713;48.388;10.928;2022-08-20T06:17:31;6.80;;;4.78;;
17193;SDS011;8713;48.388;10.928;2022-08-20T06:18:41;6.40;;;4.55;;
17193;SDS011;8713;48.388;10.928;2022-08-20T06:19:51;7.97;;;5.18;;
17193;SDS011;8713;48.388;10.928;2022-08-20T06:21:00;8.18;;;4.80;;
17193;SDS011;8713;48.388;10.928;2022-08-20T06:22:10;6.47;;;4.85;;
17193;SDS011;8713;48.388;10.928;2022-08-20T06:23:20;8.50;;;4.57;;
17193;SDS011;8713;48.388;10.928;2022-08-20T06:24:31;7.32;;;5.10;;
17193;SDS011;8713;48.388;10.928;2022-08-20T06:25:40;7.25;;;5.00;;
17193;SDS011;8713;48.388;10.928;2022-08-20T06:27:01;6.82;;;4.55;;
17193;SDS011;8713;48.388;10.928;2022-08-20T06:28:12;7.82;;;4.72;;
17193;SDS011;8713;48.388;10.928;2022-08-20T06:29:22;6.53;;;4.57;;
17193;SDS011;8713;48.388;10.928;2022-08-20T06:30:32;7.43;;;4.80;;
17193;SDS011;8713;48.388;10.928;2022-08-20T06:31:41;7.82;;;4.90;;
17193;SDS011;8713;48.388;10.928;2022-08-20T06:32:50;7.25;;;4.90;;
17193;SDS011;8713;48.388;10.928;2022-08-20T06:34:00;6.30;;;4.35;;
17193;SDS011;8713;48.388;10.928;2022-08-20T06:35:10;6.43;;;4.70;;
17193;SDS011;8713;48.388;10.928;2022-08-20T06:36:19;9.10;;;4.78;;
17193;SDS011;8713;48.388;10.928;2022-08-20T06:37:29;7.95;;;4.93;;
17193;SDS011;8713;48.388;10.928;2022-08-20T06:38:40;7.15;;;4.93;;
17193;SDS011;8713;48.388;10.928;2022-08-20T06:39:50;8.02;;;5.00;;
17193;SDS011;8713;48.388;10.928;2022-08-20T06:40:59;6.32;;;4.85;;
17193;SDS011;8713;48.388;10.928;2022-08-20T06:42:10;10.13;;;5.13;;
17193;SDS011;8713;48.388;10.928;2022-08-20T06:43:20;6.07;;;4.60;;
17193;SDS011;8713;48.388;10.928;2022-08-20T06:44:30;6.68;;;4.45;;
17193;SDS011;8713;48.388;10.928;2022-08-20T06:45:39;8.07;;;4.95;;
17193;SDS011;8713;48.388;10.928;2022-08-20T06:46:49;7.78;;;4.50;;
17193;SDS011;8713;48.388;10.928;2022-08-20T06:47:59;7.80;;;4.55;;
17193;SDS011;8713;48.388;10.928;2022-08-20T06:49:13;6.47;;;4.38;;
17193;SDS011;8713;48.388;10.928;2022-08-20T06:50:28;6.97;;;4.80;;
17193;SDS011;8713;48.388;10.928;2022-08-20T06:51:46;6.05;;;4.20;;
17193;SDS011;8713;48.388;10.928;2022-08-20T06:52:56;6.95;;;4.30;;
17193;SDS011;8713;48.388;10.928;2022-08-20T06:54:06;6.72;;;4.80;;
17193;SDS011;8713;48.388;10.928;2022-08-20T06:55:16;7.75;;;4.80;;
17193;SDS011;8713;48.388;10.928;2022-08-20T06:56:26;7.72;;;4.45;;
17193;SDS011;8713;48.388;10.928;2022-08-20T06:57:36;7.15;;;4.28;;
17193;SDS011;8713;48.388;10.928;2022-08-20T06:58:46;6.80;;;4.20;;
17193;SDS011;8713;48.388;10.928;2022-08-20T06:59:55;6.72;;;4.10;;
17193;SDS011;8713;48.388;10.928;2022-08-20T07:01:06;7.93;;;4.43;;
17193;SDS011;8713;48.388;10.928;2022-08-20T07:02:16;5.10;;;3.58;;
17193;SDS011;8713;48.388;10.928;2022-08-20T07:03:25;6.80;;;4.57;;
17193;SDS011;8713;48.388;10.928;2022-08-20T07:04:35;8.75;;;4.80;;
17193;SDS011;8713;48.388;10.928;2022-08-20T07:05:45;6.10;;;4.05;;
17193;SDS011;8713;48.388;10.928;2022-08-20T07:06:54;8.77;;;4.43;;
17193;SDS011;8713;48.388;10.928;2022-08-20T07:08:05;7.93;;;4.15;;
17193;SDS011;8713;48.388;10.928;2022-08-20T07:09:22;6.70;;;3.85;;
17193;SDS011;8713;48.388;10.928;2022-08-20T07:10:33;7.13;;;4.03;;
17193;SDS011;8713;48.388;10.928;2022-08-20T07:11:42;8.07;;;4.25;;
17193;SDS011;8713;48.388;10.928;2022-08-20T07:12:52;8.40;;;4.22;;
17193;SDS011;8713;48.388;10.928;2022-08-20T07:14:01;5.47;;;4.13;;
17193;SDS011;8713;48.388;10.928;2022-08-20T07:15:13;6.30;;;4.13;;
17193;SDS011;8713;48.388;10.928;2022-08-20T07:16:23;7.55;;;3.67;;
17193;SDS011;8713;48.388;10.928;2022-08-20T07:17:32;7.20;;;4.13;;
17193;SDS011;8713;48.388;10.928;2022-08-20T07:18:42;8.15;;;4.30;;
17193;SDS011;8713;48.388;10.928;2022-08-20T07:19:51;8.15;;;4.10;;
17193;SDS011;8713;48.388;10.928;2022-08-20T07:21:01;5.95;;;3.78;;
17193;SDS011;8713;48.388;10.928;2022-08-20T07:22:10;7.03;;;3.95;;
17193;SDS011;8713;48.388;10.928;2022-08-20T07:23:22;5.18;;;3.63;;
17193;SDS011;8713;48.388;10.928;2022-08-20T07:24:34;5.57;;;3.92;;
17193;SDS011;8713;48.388;10.928;2022-08-20T07:25:44;8.25;;;3.85;;
17193;SDS011;8713;48.388;10.928;2022-08-20T07:26:56;5.22;;;3.90;;
17193;SDS011;8713;48.388;10.928;2022-08-20T07:28:08;5.35;;;3.67;;
17193;SDS011;8713;48.388;10.928;2022-08-20T07:29:28;5.88;;;3.85;;
17193;SDS011;8713;48.388;10.928;2022-08-20T07:30:57;5.40;;;3.70;;
17193;SDS011;8713;48.388;10.928;2022-08-20T07:32:25;6.45;;;3.75;;
17193;SDS011;8713;48.388;10.928;2022-08-20T07:33:44;5.25;;;3.53;;
17193;SDS011;8713;48.388;10.928;2022-08-20T07:34:54;4.82;;;3.20;;
17193;SDS011;8713;48.388;10.928;2022-08-20T07:36:04;6.18;;;3.28;;
17193;SDS011;8713;48.388;10.928;2022-08-20T07:37:14;5.95;;;3.63;;
17193;SDS011;8713;48.388;10.928;2022-08-20T07:38:24;5.65;;;3.83;;
17193;SDS011;8713;48.388;10.928;2022-08-20T07:39:35;5.25;;;3.67;;
17193;SDS011;8713;48.388;10.928;2022-08-20T07:40:45;4.75;;;3.17;;
17193;SDS011;8713;48.388;10.928;2022-08-20T07:41:56;5.72;;;3.50;;
17193;SDS011;8713;48.388;10.928;2022-08-20T07:43:11;5.68;;;3.42;;
17193;SDS011;8713;48.388;10.928;2022-08-20T07:44:23;7.38;;;3.63;;
17193;SDS011;8713;48.388;10.928;2022-08-20T07:45:32;4.97;;;3.78;;
17193;SDS011;8713;48.388;10.928;2022-08-20T07:46:44;5.35;;;3.88;;
17193;SDS011;8713;48.388;10.928;2022-08-20T07:47:53;4.72;;;3.35;;
17193;SDS011;8713;48.388;10.928;2022-08-20T07:49:03;5.32;;;3.38;;
17193;SDS011;8713;48.388;10.928;2022-08-20T07:50:18;5.75;;;3.25;;
17193;SDS011;8713;48.388;10.928;2022-08-20T07:51:33;4.65;;;3.30;;
17193;SDS011;8713;48.388;10.928;2022-08-20T07:52:45;6.55;;;4.00;;
17193;SDS011;8713;48.388;10.928;2022-08-20T07:53:54;6.63;;;3.72;;
17193;SDS011;8713;48.388;10.928;2022-08-20T07:55:06;6.07;;;3.50;;
17193;SDS011;8713;48.388;10.928;2022-08-20T07:56:19;5.03;;;2.80;;
17193;SDS011;8713;48.388;10.928;2022-08-20T07:57:30;4.75;;;3.33;;
17193;SDS011;8713;48.388;10.928;2022-08-20T07:58:40;5.72;;;3.55;;
17193;SDS011;8713;48.388;10.928;2022-08-20T07:59:57;5.43;;;3.50;;
17193;SDS011;8713;48.388;10.928;2022-08-20T08:01:07;6.35;;;3.20;;
17193;SDS011;8713;48.388;10.928;2022-08-20T08:02:19;4.72;;;3.47;;
17193;SDS011;8713;48.388;10.928;2022-08-20T08:03:28;6.35;;;3.40;;
17193;SDS011;8713;48.388;10.928;2022-08-20T08:04:39;8.27;;;3.42;;
17193;SDS011;8713;48.388;10.928;2022-08-20T08:05:48;6.40;;;3.10;;
17193;SDS011;8713;48.388;10.928;2022-08-20T08:07:01;5.72;;;3.10;;
17193;SDS011;8713;48.388;10.928;2022-08-20T08:08:12;6.68;;;3.22;;
17193;SDS011;8713;48.388;10.928;2022-08-20T08:09:25;5.32;;;2.95;;
17193;SDS011;8713;48.388;10.928;2022-08-20T08:10:35;4.45;;;3.00;;
17193;SDS011;8713;48.388;10.928;2022-08-20T08:11:46;6.05;;;2.95;;
17193;SDS011;8713;48.388;10.928;2022-08-20T08:13:01;3.33;;;2.40;;
17193;SDS011;8713;48.388;10.928;2022-08-20T08:14:13;5.05;;;2.90;;
17193;SDS011;8713;48.388;10.928;2022-08-20T08:15:28;4.40;;;2.67;;
17193;SDS011;8713;48.388;10.928;2022-08-20T08:16:39;5.18;;;2.80;;
17193;SDS011;8713;48.388;10.928;2022-08-20T08:17:53;4.70;;;3.13;;
17193;SDS011;8713;48.388;10.928;2022-08-20T08:19:05;4.38;;;2.95;;
17193;SDS011;8713;48.388;10.928;2022-08-20T08:20:17;3.63;;;2.47;;
17193;SDS011;8713;48.388;10.928;2022-08-20T08:21:29;3.85;;;2.70;;
17193;SDS011;8713;48.388;10.928;2022-08-20T08:22:39;5.13;;;2.67;;
17193;SDS011;8713;48.388;10.928;2022-08-20T08:23:51;4.53;;;2.92;;
17193;SDS011;8713;48.388;10.928;2022-08-20T08:25:01;7.13;;;2.92;;
17193;SDS011;8713;48.388;10.928;2022-08-20T08:26:11;3.95;;;2.90;;
17193;SDS011;8713;48.388;10.928;2022-08-20T08:27:21;3.85;;;2.75;;
17193;SDS011;8713;48.388;10.928;2022-08-20T08:28:31;5.15;;;2.85;;
17193;SDS011;8713;48.388;10.928;2022-08-20T08:29:41;4.38;;;2.70;;
17193;SDS011;8713;48.388;10.928;2022-08-20T08:30:51;4.63;;;2.80;;
17193;SDS011;8713;48.388;10.928;2022-08-20T08:32:00;7.00;;;2.70;;
17193;SDS011;8713;48.388;10.928;2022-08-20T08:33:21;4.38;;;2.72;;
17193;SDS011;8713;48.388;10.928;2022-08-20T08:34:36;4.07;;;2.80;;
17193;SDS011;8713;48.388;10.928;2022-08-20T08:35:46;3.70;;;2.80;;
17193;SDS011;8713;48.388;10.928;2022-08-20T08:36:56;4.28;;;2.60;;
17193;SDS011;8713;48.388;10.928;2022-08-20T08:38:06;3.30;;;2.50;;
17193;SDS011;8713;48.388;10.928;2022-08-20T08:39:15;4.82;;;2.70;;
17193;SDS011;8713;48.388;10.928;2022-08-20T08:40:25;4.35;;;2.45;;
17193;SDS011;8713;48.388;10.928;2022-08-20T08:41:36;5.00;;;2.60;;
17193;SDS011;8713;48.388;10.928;2022-08-20T08:42:52;6.47;;;2.58;;
17193;SDS011;8713;48.388;10.928;2022-08-20T08:44:06;3.90;;;2.33;;
17193;SDS011;8713;48.388;10.928;2022-08-20T08:45:20;5.70;;;2.67;;
17193;SDS011;8713;48.388;10.928;2022-08-20T08:46:30;3.80;;;2.58;;
17193;SDS011;8713;48.388;10.928;2022-08-20T08:47:42;4.97;;;2.38;;
17193;SDS011;8713;48.388;10.928;2022-08-20T08:48:54;4.22;;;2.63;;
17193;SDS011;8713;48.388;10.928;2022-08-20T08:50:06;4.38;;;2.70;;
17193;SDS011;8713;48.388;10.928;2022-08-20T08:51:30;6.00;;;2.88;;
17193;SDS011;8713;48.388;10.928;2022-08-20T08:52:49;4.32;;;2.72;;
17193;SDS011;8713;48.388;10.928;2022-08-20T08:54:01;5.28;;;2.97;;
17193;SDS011;8713;48.388;10.928;2022-08-20T08:55:13;5.05;;;3.15;;
17193;SDS011;8713;48.388;10.928;2022-08-20T08:56:26;7.97;;;2.78;;
17193;SDS011;8713;48.388;10.928;2022-08-20T08:57:37;4.55;;;3.10;;
17193;SDS011;8713;48.388;10.928;2022-08-20T08:58:46;4.32;;;2.90;;
17193;SDS011;8713;48.388;10.928;2022-08-20T09:00:09;6.13;;;2.85;;
17193;SDS011;8713;48.388;10.928;2022-08-20T09:01:23;3.45;;;2.40;;
17193;SDS011;8713;48.388;10.928;2022-08-20T09:02:32;4.20;;;2.65;;
17193;SDS011;8713;48.388;10.928;2022-08-20T09:03:44;7.03;;;2.95;;
17193;SDS011;8713;48.388;10.928;2022-08-20T09:04:55;3.42;;;2.53;;
17193;SDS011;8713;48.388;10.928;2022-08-20T09:06:06;3.72;;;2.60;;
17193;SDS011;8713;48.388;10.928;2022-08-20T09:07:16;7.07;;;2.58;;
17193;SDS011;8713;48.388;10.928;2022-08-20T09:08:28;4.68;;;2.95;;
17193;SDS011;8713;48.388;10.928;2022-08-20T09:09:51;4.72;;;2.92;;
17193;SDS011;8713;48.388;10.928;2022-08-20T09:11:02;6.13;;;2.88;;
17193;SDS011;8713;48.388;10.928;2022-08-20T09:12:15;4.47;;;2.72;;
17193;SDS011;8713;48.388;10.928;2022-08-20T09:13:28;4.55;;;2.60;;
17193;SDS011;8713;48.388;10.928;2022-08-20T09:14:38;4.15;;;2.80;;
17193;SDS011;8713;48.388;10.928;2022-08-20T09:15:47;4.13;;;3.20;;
17193;SDS011;8713;48.388;10.928;2022-08-20T09:16:56;4.90;;;2.83;;
17193;SDS011;8713;48.388;10.928;2022-08-20T09:18:06;5.57;;;3.20;;
17193;SDS011;8713;48.388;10.928;2022-08-20T09:19:15;4.00;;;2.97;;
17193;SDS011;8713;48.388;10.928;2022-08-20T09:20:25;3.88;;;2.97;;
17193;SDS011;8713;48.388;10.928;2022-08-20T09:21:34;5.63;;;3.10;;
17193;SDS011;8713;48.388;10.928;2022-08-20T09:22:45;5.07;;;3.35;;
17193;SDS011;8713;48.388;10.928;2022-08-20T09:23:55;6.85;;;3.15;;
17193;SDS011;8713;48.388;10.928;2022-08-20T09:25:04;4.18;;;2.75;;
17193;SDS011;8713;48.388;10.928;2022-08-20T09:26:14;5.18;;;2.90;;
17193;SDS011;8713;48.388;10.928;2022-08-20T09:27:24;4.22;;;2.92;;
17193;SDS011;8713;48.388;10.928;2022-08-20T09:28:34;4.13;;;2.85;;
17193;SDS011;8713;48.388;10.928;2022-08-20T09:29:44;5.72;;;3.00;;
17193;SDS011;8713;48.388;10.928;2022-08-20T09:30:53;4.57;;;2.88;;
17193;SDS011;8713;48.388;10.928;2022-08-20T09:32:11;6.38;;;3.35;;
17193;SDS011;8713;48.388;10.928;2022-08-20T09:33:26;4.88;;;3.28;;
17193;SDS011;8713;48.388;10.928;2022-08-20T09:34:37;6.65;;;3.70;;
17193;SDS011;8713;48.388;10.928;2022-08-20T09:35:48;6.57;;;4.43;;
17193;SDS011;8713;48.388;10.928;2022-08-20T09:36:57;8.52;;;3.97;;
17193;SDS011;8713;48.388;10.928;2022-08-20T09:38:07;6.88;;;3.83;;
17193;SDS011;8713;48.388;10.928;2022-08-20T09:39:16;8.20;;;4.10;;
17193;SDS011;8713;48.388;10.928;2022-08-20T09:40:26;8.68;;;3.97;;
17193;SDS011;8713;48.388;10.928;2022-08-20T09:41:35;7.75;;;4.15;;
17193;SDS011;8713;48.388;10.928;2022-08-20T09:42:45;7.22;;;4.20;;
17193;SDS011;8713;48.388;10.928;2022-08-20T09:43:54;8.15;;;4.15;;
17193;SDS011;8713;48.388;10.928;2022-08-20T09:45:04;5.70;;;3.72;;
17193;SDS011;8713;48.388;10.928;2022-08-20T09:46:14;6.22;;;4.00;;
17193;SDS011;8713;48.388;10.928;2022-08-20T09:47:23;5.05;;;3.40;;
17193;SDS011;8713;48.388;10.928;2022-08-20T09:48:34;5.70;;;3.10;;
17193;SDS011;8713;48.388;10.928;2022-08-20T09:49:44;7.25;;;3.63;;
17193;SDS011;8713;48.388;10.928;2022-08-20T09:50:53;4.63;;;3.47;;
17193;SDS011;8713;48.388;10.928;2022-08-20T09:52:04;4.35;;;3.25;;
17193;SDS011;8713;48.388;10.928;2022-08-20T09:53:16;4.78;;;3.10;;
17193;SDS011;8713;48.388;10.928;2022-08-20T09:54:28;5.05;;;3.10;;
17193;SDS011;8713;48.388;10.928;2022-08-20T09:55:39;4.90;;;3.22;;
17193;SDS011;8713;48.388;10.928;2022-08-20T09:56:51;4.07;;;2.90;;
17193;SDS011;8713;48.388;10.928;2022-08-20T09:58:07;5.50;;;3.17;;
17193;SDS011;8713;48.388;10.928;2022-08-20T09:59:41;4.93;;;3.17;;
17193;SDS011;8713;48.388;10.928;2022-08-20T10:00:50;5.20;;;3.40;;
17193;SDS011;8713;48.388;10.928;2022-08-20T10:01:59;5.95;;;3.45;;
17193;SDS011;8713;48.388;10.928;2022-08-20T10:03:08;4.75;;;3.47;;
17193;SDS011;8713;48.388;10.928;2022-08-20T10:04:18;5.68;;;3.53;;
17193;SDS011;8713;48.388;10.928;2022-08-20T10:05:28;4.03;;;3.13;;
17193;SDS011;8713;48.388;10.928;2022-08-20T10:06:38;5.55;;;3.50;;
17193;SDS011;8713;48.388;10.928;2022-08-20T10:07:48;5.72;;;3.58;;
17193;SDS011;8713;48.388;10.928;2022-08-20T10:08:58;4.93;;;3.45;;
17193;SDS011;8713;48.388;10.928;2022-08-20T10:10:08;4.65;;;3.47;;
17193;SDS011;8713;48.388;10.928;2022-08-20T10:11:20;4.22;;;2.97;;
17193;SDS011;8713;48.388;10.928;2022-08-20T10:12:29;5.28;;;2.90;;
17193;SDS011;8713;48.388;10.928;2022-08-20T10:13:39;5.30;;;3.15;;
17193;SDS011;8713;48.388;10.928;2022-08-20T10:14:49;4.88;;;3.15;;
17193;SDS011;8713;48.388;10.928;2022-08-20T10:16:00;5.25;;;3.53;;
17193;SDS011;8713;48.388;10.928;2022-08-20T10:17:10;8.18;;;4.53;;
17193;SDS011;8713;48.388;10.928;2022-08-20T10:18:19;6.13;;;3.85;;
17193;SDS011;8713;48.388;10.928;2022-08-20T10:19:29;5.95;;;3.90;;
17193;SDS011;8713;48.388;10.928;2022-08-20T10:20:39;5.30;;;3.92;;
17193;SDS011;8713;48.388;10.928;2022-08-20T10:21:49;5.80;;;3.85;;
17193;SDS011;8713;48.388;10.928;2022-08-20T10:23:00;5.30;;;3.50;;
17193;SDS011;8713;48.388;10.928;2022-08-20T10:24:09;6.13;;;3.80;;
17193;SDS011;8713;48.388;10.928;2022-08-20T10:25:19;7.03;;;3.88;;
17193;SDS011;8713;48.388;10.928;2022-08-20T10:26:28;3.92;;;3.33;;
17193;SDS011;8713;48.388;10.928;2022-08-20T10:27:38;5.80;;;3.42;;
17193;SDS011;8713;48.388;10.928;2022-08-20T10:28:47;5.65;;;3.42;;
17193;SDS011;8713;48.388;10.928;2022-08-20T10:29:57;4.85;;;3.45;;
17193;SDS011;8713;48.388;10.928;2022-08-20T10:31:10;5.05;;;3.85;;
17193;SDS011;8713;48.388;10.928;2022-08-20T10:32:20;4.93;;;3.20;;
17193;SDS011;8713;48.388;10.928;2022-08-20T10:33:30;4.25;;;3.15;;
17193;SDS011;8713;48.388;10.928;2022-08-20T10:34:39;6.80;;;3.97;;
17193;SDS011;8713;48.388;10.928;2022-08-20T10:35:51;4.18;;;3.22;;